This is the latest recevied weather packets stored in our database for station/object SR9SMR. If no packets are shown the sender has not sent any weather packets the latest 10 day(s).
| Time | Temp. | Humidity | Pressure | Rain* | Wind** | Luminosity | Snow |
|---|---|---|---|---|---|---|---|
| 1777896229 | 18.33° C | 100% | 901.6 hPa | - | - | - | - |
| 1777896043 | 17.22° C | 100% | 901 hPa | - | - | - | - |
| 1777895883 | 17.78° C | 100% | 900.5 hPa | - | - | - | - |
| 1777895579 | 18.33° C | 100% | 901.3 hPa | - | - | - | - |
| 1777895352 | 17.78° C | 100% | 901.5 hPa | - | - | - | - |
| 1777895331 | 17.22° C | 100% | 901.4 hPa | - | - | - | - |
| 1777895224 | 17.22° C | 100% | 901.4 hPa | - | - | - | - |
| 1777895111 | 17.22° C | 100% | 901.5 hPa | - | - | - | - |
| 1777894920 | 17.78° C | 100% | 901.7 hPa | - | - | - | - |
| 1777894632 | 17.22° C | 100% | 901 hPa | - | - | - | - |
| 1777894610 | 17.78° C | 100% | 901.5 hPa | - | - | - | - |
| 1777894449 | 17.22° C | 100% | 901 hPa | - | - | - | - |
| 1777894145 | 17.22° C | 100% | 901.4 hPa | - | - | - | - |
| 1777894082 | 17.78° C | 100% | 901.5 hPa | - | - | - | - |
| 1777893904 | 17.22° C | 100% | 901.7 hPa | - | - | - | - |
| 1777893840 | 17.22° C | 100% | 901.4 hPa | - | - | - | - |
| 1777893783 | 17.22° C | 100% | 901.2 hPa | - | - | - | - |
| 1777893662 | 17.22° C | 100% | 901.5 hPa | - | - | - | - |
| 1777893536 | 17.22° C | 100% | 901.3 hPa | - | - | - | - |
| 1777893227 | 17.78° C | 100% | 902.4 hPa | - | - | - | - |
| 1777892941 | 16.67° C | 100% | 901.3 hPa | - | - | - | - |
| 1777892542 | 17.22° C | 100% | 901.2 hPa | - | - | - | - |
| 1777892418 | 16.67° C | 100% | 901 hPa | - | - | - | - |
| 1777892151 | 16.67° C | 100% | 901.6 hPa | - | - | - | - |
| 1777891897 | 16.67° C | 100% | 901.8 hPa | - | - | - | - |
* Rain since midnight (hover to see other rain measurements)
** Current wind speed in m/s (hover to see current wind gust speed)